Time;durP1;ratioP1;P1;durP2;ratioP2;P2;SDS_P1;SDS_P2;PMS_P1;PMS_P2;Temp;Humidity;BMP_temperature;BMP_pressure;BME280_temperature;BME280_humidity;BME280_pressure;Samples;Min_cycle;Max_cycle;Signal;HPM_P1;HPM_P2
2023/03/22 00:01:09;;;;;;;;;;;;;;;8.83;92.38;100898.13;4933483;29;5136;-76
2023/03/22 00:03:35;;;;;;;;;;;;;;;8.82;92.40;100899.03;4950838;29;1074;-76
2023/03/22 00:06:00;;;;;;;;;;;;;;;8.80;92.41;100892.34;4950385;29;1883;-76
2023/03/22 00:08:25;;;;;;;;;;;;;;;8.78;92.21;100887.28;4943533;29;1070;-76
2023/03/22 00:10:51;;;;;;;;;;;;;;;8.77;92.33;100883.03;4945971;29;1094;-76
2023/03/22 00:13:16;;;;;;;;;;;;;;;8.74;92.01;100888.44;4948790;29;1140;-76
2023/03/22 00:15:43;;;;;;;;;;;;;;;8.72;92.19;100885.97;4928139;29;1576;-76
2023/03/22 00:18:11;;;;;;;;;;;;;;;8.73;92.51;100882.44;4947845;28;1269;-77
2023/03/22 00:20:38;;;;;;;;;;;;;;;8.72;92.00;100880.00;4945199;29;1280;-76
2023/03/22 00:23:03;;;;;;;;;;;;;;;8.71;91.98;100870.56;4947970;29;1760;-76
2023/03/22 00:25:28;;;;;;;;;;;;;;;8.69;91.96;100875.84;4946597;29;1984;-76
2023/03/22 00:27:54;;;;;;;;;;;;;;;8.68;92.17;100868.22;4949217;29;1327;-76
2023/03/22 00:30:19;;;;;;;;;;;;;;;8.65;92.09;100863.25;4930825;29;1426;-76
2023/03/22 00:32:44;;;;;;;;;;;;;;;8.67;92.16;100861.41;4948766;29;1332;-76
2023/03/22 00:35:10;;;;;;;;;;;;;;;8.64;92.33;100859.03;4932735;29;2125;-76
2023/03/22 00:37:37;;;;;;;;;;;;;;;8.64;92.10;100856.44;4937793;29;1268;-76
2023/03/22 00:40:11;;;;;;;;;;;;;;;8.63;92.13;100858.19;4960459;28;1511;-76
2023/03/22 00:42:37;;;;;;;;;;;;;;;8.62;91.73;100847.97;4932631;28;1390;-76
2023/03/22 00:45:04;;;;;;;;;;;;;;;8.61;91.99;100847.16;4929851;28;1949;-76
2023/03/22 00:47:29;;;;;;;;;;;;;;;8.59;92.10;100848.19;4929252;29;1215;-76
2023/03/22 00:49:54;;;;;;;;;;;;;;;8.58;91.98;100841.38;4945573;29;1283;-76
2023/03/22 00:52:20;;;;;;;;;;;;;;;8.54;91.95;100835.59;4932234;29;1462;-76
2023/03/22 00:54:46;;;;;;;;;;;;;;;8.52;92.18;100843.47;4946421;28;1180;-76
2023/03/22 00:57:13;;;;;;;;;;;;;;;8.49;92.34;100833.38;4930340;29;2213;-76
2023/03/22 00:59:38;;;;;;;;;;;;;;;8.47;92.29;100845.56;4935938;29;1521;-77
2023/03/22 01:02:04;;;;;;;;;;;;;;;8.44;91.77;100834.63;4945550;29;5340;-77
2023/03/22 01:04:30;;;;;;;;;;;;;;;8.39;92.28;100827.19;4930660;29;1298;-76
2023/03/22 01:06:58;;;;;;;;;;;;;;;8.36;92.22;100822.25;4949279;29;2033;-76
2023/03/22 01:09:27;;;;;;;;;;;;;;;8.32;92.27;100814.81;4924909;29;1414;-77
2023/03/22 01:11:52;;;;;;;;;;;;;;;8.27;92.26;100807.38;4938776;29;1484;-77
2023/03/22 01:14:18;;;;;;;;;;;;;;;8.24;92.36;100811.00;4946207;28;1417;-78
2023/03/22 01:16:43;;;;;;;;;;;;;;;8.23;92.18;100800.78;4947632;29;1497;-77
2023/03/22 01:19:09;;;;;;;;;;;;;;;8.18;92.60;100792.53;4948556;29;1417;-76
2023/03/22 01:21:34;;;;;;;;;;;;;;;8.19;92.94;100794.19;4936206;29;1908;-76
2023/03/22 01:23:59;;;;;;;;;;;;;;;8.18;92.70;100777.03;4930355;29;1333;-76
2023/03/22 01:26:24;;;;;;;;;;;;;;;8.17;92.84;100780.56;4948131;29;1968;-77
2023/03/22 01:28:50;;;;;;;;;;;;;;;8.17;92.64;100780.56;4946720;28;1513;-76
2023/03/22 01:31:15;;;;;;;;;;;;;;;8.16;92.73;100771.16;4945221;29;2147;-77
2023/03/22 01:33:40;;;;;;;;;;;;;;;8.14;93.00;100760.09;4936467;29;1647;-76
2023/03/22 01:36:06;;;;;;;;;;;;;;;8.13;92.96;100758.47;4949162;29;1537;-77
2023/03/22 01:38:31;;;;;;;;;;;;;;;8.16;93.06;100758.25;4927947;28;1319;-77
2023/03/22 01:40:56;;;;;;;;;;;;;;;8.16;93.32;100753.09;4944373;29;1472;-77
2023/03/22 01:43:21;;;;;;;;;;;;;;;8.17;93.63;100744.38;4947536;29;1402;-76
2023/03/22 01:45:47;;;;;;;;;;;;;;;8.18;93.50;100733.13;4931408;28;1969;-77
2023/03/22 01:48:15;;;;;;;;;;;;;;;8.18;93.58;100731.34;4938993;29;1289;-77
2023/03/22 01:50:43;;;;;;;;;;;;;;;8.19;93.82;100725.25;4958709;28;1391;-76
2023/03/22 01:53:09;;;;;;;;;;;;;;;8.22;94.03;100716.47;4949189;28;1209;-77
2023/03/22 01:55:36;;;;;;;;;;;;;;;8.24;93.95;100719.75;4945146;29;1366;-76
2023/03/22 01:58:02;;;;;;;;;;;;;;;8.25;94.00;100714.47;4946955;28;1466;-77
2023/03/22 02:00:27;;;;;;;;;;;;;;;8.28;94.33;100710.84;4942200;28;4933;-76
2023/03/22 02:02:53;;;;;;;;;;;;;;;8.30;94.30;100703.78;4943918;29;1513;-77
2023/03/22 02:05:21;;;;;;;;;;;;;;;8.32;94.35;100707.09;4926585;29;1903;-77
2023/03/22 02:07:46;;;;;;;;;;;;;;;8.35;94.63;100696.53;4945830;29;1284;-77
2023/03/22 02:10:13;;;;;;;;;;;;;;;8.38;94.69;100695.53;4947050;28;1200;-77
2023/03/22 02:12:39;;;;;;;;;;;;;;;8.38;94.82;100691.19;4947710;29;1544;-77
2023/03/22 02:15:16;;;;;;;;;;;;;;;8.41;94.52;100685.75;4961684;28;1477;-76
2023/03/22 02:18:05;;;;;;;;;;;;;;;8.42;94.81;100677.06;4943964;29;1209;-76
2023/03/22 02:20:48;;;;;;;;;;;;;;;8.44;95.35;100682.97;4943116;29;1647;-77
2023/03/22 02:23:23;;;;;;;;;;;;;;;8.45;94.99;100684.59;4941499;29;1132;-77
2023/03/22 02:26:04;;;;;;;;;;;;;;;8.46;94.61;100683.66;4947978;29;2450;-76
2023/03/22 02:28:48;;;;;;;;;;;;;;;8.46;95.12;100686.25;4929396;29;2207;-77
2023/03/22 02:31:13;;;;;;;;;;;;;;;8.47;95.44;100685.31;4961554;28;1429;-76
2023/03/22 02:33:38;;;;;;;;;;;;;;;8.49;95.59;100683.44;4946963;29;1242;-77
2023/03/22 02:36:22;;;;;;;;;;;;;;;8.49;95.53;100678.28;4947845;28;1561;-76
2023/03/22 02:39:00;;;;;;;;;;;;;;;8.51;95.14;100676.38;4945092;29;1410;-76
2023/03/22 02:41:31;;;;;;;;;;;;;;;8.52;95.33;100672.84;4947188;28;1575;-76
2023/03/22 02:44:05;;;;;;;;;;;;;;;8.52;95.83;100672.03;4935690;29;1375;-76
2023/03/22 02:46:45;;;;;;;;;;;;;;;8.54;96.18;100664.16;4933359;28;1954;-77
2023/03/22 02:49:29;;;;;;;;;;;;;;;8.55;95.89;100660.66;4931306;28;2178;-77
2023/03/22 02:51:58;;;;;;;;;;;;;;;8.56;96.28;100663.13;4948354;29;1314;-77
2023/03/22 02:54:44;;;;;;;;;;;;;;;8.57;95.80;100663.94;4946756;29;1150;-77
2023/03/22 02:57:16;;;;;;;;;;;;;;;8.58;96.52;100656.06;4930795;29;1407;-77
2023/03/22 02:59:42;;;;;;;;;;;;;;;8.60;96.53;100648.19;4950494;29;1263;-76
2023/03/22 03:02:10;;;;;;;;;;;;;;;8.60;96.86;100643.00;4949455;29;5262;-76
2023/03/22 03:04:37;;;;;;;;;;;;;;;8.61;96.97;100639.50;4947218;29;1390;-76
2023/03/22 03:07:06;;;;;;;;;;;;;;;8.63;96.83;100642.78;4948006;28;1911;-77
2023/03/22 03:09:31;;;;;;;;;;;;;;;8.63;96.72;100632.44;4930889;29;1522;-77
2023/03/22 03:11:57;;;;;;;;;;;;;;;8.64;96.55;100628.91;4945752;29;1641;-76
2023/03/22 03:14:23;;;;;;;;;;;;;;;8.65;96.80;100630.56;4951759;29;1262;-77
2023/03/22 03:17:15;;;;;;;;;;;;;;;8.66;96.59;100629.63;4948619;29;1184;-76
2023/03/22 03:19:49;;;;;;;;;;;;;;;8.66;96.73;100627.88;4933926;29;1502;-76
2023/03/22 03:22:40;;;;;;;;;;;;;;;8.68;97.20;100635.50;4945709;29;1642;-77
2023/03/22 03:25:17;;;;;;;;;;;;;;;8.69;97.13;100631.97;4951242;29;1953;-77
2023/03/22 03:28:05;;;;;;;;;;;;;;;8.73;97.11;100629.03;4947379;29;1469;-77
2023/03/22 03:30:33;;;;;;;;;;;;;;;8.73;97.28;100623.88;4931838;29;1307;-76
2023/03/22 03:33:12;;;;;;;;;;;;;;;8.74;97.53;100629.88;4947911;29;1152;-77
2023/03/22 03:35:39;;;;;;;;;;;;;;;8.76;97.51;100635.72;4933661;29;1462;-77
2023/03/22 03:38:10;;;;;;;;;;;;;;;8.77;97.10;100625.28;4947460;28;1330;-76
2023/03/22 03:40:40;;;;;;;;;;;;;;;8.79;97.60;100627.75;4945037;29;1148;-76
2023/03/22 03:43:07;;;;;;;;;;;;;;;8.80;97.10;100629.38;4963066;28;1305;-76
2023/03/22 03:45:34;;;;;;;;;;;;;;;8.81;97.33;100631.03;4932387;28;1961;-77
2023/03/22 03:48:01;;;;;;;;;;;;;;;8.83;97.26;100634.34;4950139;28;1358;-77
2023/03/22 03:50:26;;;;;;;;;;;;;;;8.84;97.37;100638.56;4949045;29;1316;-76
2023/03/22 03:52:52;;;;;;;;;;;;;;;8.85;97.26;100631.63;4944490;28;1219;-76
2023/03/22 03:55:18;;;;;;;;;;;;;;;8.84;97.29;100633.41;4945673;29;1251;-77
2023/03/22 03:57:43;;;;;;;;;;;;;;;8.85;97.13;100637.63;4944080;29;1326;-76
2023/03/22 04:00:09;;;;;;;;;;;;;;;8.85;96.97;100631.63;4950073;29;4908;-76
2023/03/22 04:02:34;;;;;;;;;;;;;;;8.86;96.88;100641.84;4948958;28;1198;-76
2023/03/22 04:04:59;;;;;;;;;;;;;;;8.87;96.83;100645.25;4948240;29;1973;-76
2023/03/22 04:07:24;;;;;;;;;;;;;;;8.82;96.93;100632.66;4931782;29;1463;-76
2023/03/22 04:09:50;;;;;;;;;;;;;;;8.82;97.23;100637.03;4942072;28;1433;-76
2023/03/22 04:12:15;;;;;;;;;;;;;;;8.81;97.42;100630.22;4943820;29;1641;-76
2023/03/22 04:14:40;;;;;;;;;;;;;;;8.79;96.97;100632.91;4927341;29;1167;-76
2023/03/22 04:17:05;;;;;;;;;;;;;;;8.77;97.31;100629.63;4947606;29;1196;-76
2023/03/22 04:19:31;;;;;;;;;;;;;;;8.75;96.94;100621.16;4929574;29;1966;-76
2023/03/22 04:21:56;;;;;;;;;;;;;;;8.74;97.01;100620.34;4948738;29;1670;-76
2023/03/22 04:24:22;;;;;;;;;;;;;;;8.73;96.91;100615.28;4944679;29;1203;-76
2023/03/22 04:26:47;;;;;;;;;;;;;;;8.71;96.79;100622.34;4931314;29;1961;-76
2023/03/22 04:29:12;;;;;;;;;;;;;;;8.68;97.01;100620.81;4949316;29;1754;-76
2023/03/22 04:31:38;;;;;;;;;;;;;;;8.67;96.90;100618.34;4928399;29;1232;-76
2023/03/22 04:34:04;;;;;;;;;;;;;;;8.64;96.93;100613.41;4948988;29;1422;-76
2023/03/22 04:36:34;;;;;;;;;;;;;;;8.63;97.11;100614.34;4949549;29;1179;-76
2023/03/22 04:38:59;;;;;;;;;;;;;;;8.60;97.29;100606.81;4941542;28;1580;-76
2023/03/22 04:41:25;;;;;;;;;;;;;;;8.60;97.14;100612.00;4939551;29;2141;-76
2023/03/22 04:43:50;;;;;;;;;;;;;;;8.58;96.72;100608.72;4949049;28;1235;-76
2023/03/22 04:46:16;;;;;;;;;;;;;;;8.57;96.88;100607.06;4949046;29;1902;-76
2023/03/22 04:48:42;;;;;;;;;;;;;;;8.55;96.43;100608.97;4941699;29;1260;-76
2023/03/22 04:51:09;;;;;;;;;;;;;;;8.54;97.03;100602.94;4931786;29;1486;-76
2023/03/22 04:53:37;;;;;;;;;;;;;;;8.52;96.84;100600.47;4945160;29;1434;-76
2023/03/22 04:56:04;;;;;;;;;;;;;;;8.52;96.76;100610.00;4932271;29;1442;-76
2023/03/22 04:58:29;;;;;;;;;;;;;;;8.50;97.04;100597.19;4931632;29;1422;-76
2023/03/22 05:00:55;;;;;;;;;;;;;;;8.49;96.93;100592.97;4944795;28;4890;-76
2023/03/22 05:03:20;;;;;;;;;;;;;;;8.49;97.13;100595.56;4952960;28;1187;-76
2023/03/22 05:05:52;;;;;;;;;;;;;;;8.50;96.84;100596.38;4929538;29;1903;-76
2023/03/22 05:08:18;;;;;;;;;;;;;;;8.51;97.24;100590.28;4929519;29;1470;-75
2023/03/22 05:10:43;;;;;;;;;;;;;;;8.50;96.87;100573.94;4930420;28;1400;-75
2023/03/22 05:13:08;;;;;;;;;;;;;;;8.50;97.12;100586.88;4934222;29;1517;-75
2023/03/22 05:15:33;;;;;;;;;;;;;;;8.52;96.79;100595.31;4948086;28;2356;-76
2023/03/22 05:17:59;;;;;;;;;;;;;;;8.52;97.15;100584.16;4925948;29;1480;-76
2023/03/22 05:20:24;;;;;;;;;;;;;;;8.50;97.35;100586.88;4944437;28;1261;-75
2023/03/22 05:22:49;;;;;;;;;;;;;;;8.50;97.07;100586.03;4931262;29;1553;-75
2023/03/22 05:25:15;;;;;;;;;;;;;;;8.50;97.03;100589.44;4945512;29;1906;-76
2023/03/22 05:27:40;;;;;;;;;;;;;;;8.48;97.12;100583.56;4945566;29;1571;-76
2023/03/22 05:30:06;;;;;;;;;;;;;;;8.47;96.92;100587.09;4947878;29;1378;-75
2023/03/22 05:32:31;;;;;;;;;;;;;;;8.47;96.59;100591.44;4948782;29;1264;-77
2023/03/22 05:34:56;;;;;;;;;;;;;;;8.45;96.96;100586.38;4945041;29;1596;-76
2023/03/22 05:37:21;;;;;;;;;;;;;;;8.44;96.56;100582.16;4945009;29;1377;-76
2023/03/22 05:39:47;;;;;;;;;;;;;;;8.41;96.84;100587.56;4943802;28;1419;-76
2023/03/22 05:42:12;;;;;;;;;;;;;;;8.42;96.73;100588.38;4946251;29;1461;-76
2023/03/22 05:44:37;;;;;;;;;;;;;;;8.38;96.94;100582.63;4923660;29;1504;-76
2023/03/22 05:47:03;;;;;;;;;;;;;;;8.42;97.02;100580.63;4943544;29;1891;-75
2023/03/22 05:49:29;;;;;;;;;;;;;;;8.39;96.57;100579.09;4932131;29;1480;-76
2023/03/22 05:51:57;;;;;;;;;;;;;;;8.38;96.45;100574.88;4948627;29;1323;-75
2023/03/22 05:54:23;;;;;;;;;;;;;;;8.36;96.76;100569.00;4947043;29;1387;-76
2023/03/22 05:56:48;;;;;;;;;;;;;;;8.36;96.62;100574.16;4934457;29;1410;-75
2023/03/22 05:59:13;;;;;;;;;;;;;;;8.35;96.86;100572.50;4945599;29;1557;-76
2023/03/22 06:01:38;;;;;;;;;;;;;;;8.34;96.52;100570.84;4942308;28;5059;-76
2023/03/22 06:04:04;;;;;;;;;;;;;;;8.34;96.72;100570.84;4962643;28;1453;-76
2023/03/22 06:06:29;;;;;;;;;;;;;;;8.34;96.72;100570.84;4948364;29;1974;-75
2023/03/22 06:08:54;;;;;;;;;;;;;;;8.34;96.71;100565.69;4946920;29;1318;-75
2023/03/22 06:11:20;;;;;;;;;;;;;;;8.35;96.60;100572.50;4944236;28;1580;-76
2023/03/22 06:13:45;;;;;;;;;;;;;;;8.36;96.52;100568.16;4944583;29;2280;-76
2023/03/22 06:16:10;;;;;;;;;;;;;;;8.35;96.83;100569.91;4933538;29;1478;-76
2023/03/22 06:18:35;;;;;;;;;;;;;;;8.35;96.24;100572.50;4946355;29;1285;-76
2023/03/22 06:21:01;;;;;;;;;;;;;;;8.35;96.54;100564.72;4948837;29;1446;-76
2023/03/22 06:23:26;;;;;;;;;;;;;;;8.35;96.60;100571.66;4945064;29;1374;-76
2023/03/22 06:25:51;;;;;;;;;;;;;;;8.35;96.70;100572.50;4949679;28;1899;-76
2023/03/22 06:28:17;;;;;;;;;;;;;;;8.36;96.28;100558.66;4950230;28;1179;-77
2023/03/22 06:30:42;;;;;;;;;;;;;;;8.39;96.13;100561.00;4944725;29;1433;-76
2023/03/22 06:33:07;;;;;;;;;;;;;;;8.39;96.34;100568.78;4948186;29;1172;-76
2023/03/22 06:35:33;;;;;;;;;;;;;;;8.43;95.87;100570.19;4949668;28;1453;-76
2023/03/22 06:37:58;;;;;;;;;;;;;;;8.44;95.90;100569.25;4960647;28;1217;-76
2023/03/22 06:40:24;;;;;;;;;;;;;;;8.45;96.11;100568.28;4948287;29;2022;-76
2023/03/22 06:42:49;;;;;;;;;;;;;;;8.47;96.13;100579.34;4949291;29;1342;-77
2023/03/22 06:45:18;;;;;;;;;;;;;;;8.50;95.98;100571.34;4935503;28;1969;-76
2023/03/22 06:47:43;;;;;;;;;;;;;;;8.52;95.65;100569.47;4947900;29;1220;-78
2023/03/22 06:50:09;;;;;;;;;;;;;;;8.57;95.47;100570.88;4944994;29;1306;-76
2023/03/22 06:52:34;;;;;;;;;;;;;;;8.58;95.38;100567.34;4949221;29;1195;-77
2023/03/22 06:54:59;;;;;;;;;;;;;;;8.64;95.23;100572.03;4946344;29;1359;-76
2023/03/22 06:57:25;;;;;;;;;;;;;;;8.65;95.41;100568.50;4950420;29;1422;-76
2023/03/22 06:59:50;;;;;;;;;;;;;;;8.70;95.46;100561.22;4930533;29;1323;-76
2023/03/22 07:02:15;;;;;;;;;;;;;;;8.72;95.12;100569.69;4962707;28;5213;-77
2023/03/22 07:04:40;;;;;;;;;;;;;;;8.78;94.92;100574.41;4951188;28;1135;-76
2023/03/22 07:07:06;;;;;;;;;;;;;;;8.86;94.73;100572.03;4946428;29;1899;-76
2023/03/22 07:09:31;;;;;;;;;;;;;;;8.92;94.48;100576.72;4947179;29;2063;-76
2023/03/22 07:11:56;;;;;;;;;;;;;;;8.97;94.53;100574.59;4931681;29;1422;-76
2023/03/22 07:14:22;;;;;;;;;;;;;;;9.00;94.54;100579.53;4932939;29;1325;-76
2023/03/22 07:16:47;;;;;;;;;;;;;;;9.04;94.26;100575.72;4949829;29;1496;-76
2023/03/22 07:19:12;;;;;;;;;;;;;;;9.07;93.72;100573.88;4960011;28;1284;-77
2023/03/22 07:21:37;;;;;;;;;;;;;;;9.06;93.86;100562.69;4932084;29;1293;-76
2023/03/22 07:24:03;;;;;;;;;;;;;;;9.06;93.46;100565.28;4944351;29;1711;-76
2023/03/22 07:26:29;;;;;;;;;;;;;;;9.10;93.84;100558.09;4945934;28;1910;-77
2023/03/22 07:28:55;;;;;;;;;;;;;;;9.14;93.19;100572.44;4950922;28;1181;-76
2023/03/22 07:31:20;;;;;;;;;;;;;;;9.09;93.63;100577.16;4944854;28;1011;-76
2023/03/22 07:33:47;;;;;;;;;;;;;;;9.10;93.00;100579.59;4950461;29;1106;-77
2023/03/22 07:36:12;;;;;;;;;;;;;;;9.09;93.07;100566.78;4930197;29;1238;-78
2023/03/22 07:38:37;;;;;;;;;;;;;;;9.13;92.50;100570.78;4930448;29;1367;-76
2023/03/22 07:41:02;;;;;;;;;;;;;;;9.15;93.13;100566.31;4944321;29;1492;-78
2023/03/22 07:43:27;;;;;;;;;;;;;;;9.16;93.47;100578.28;4936440;28;1150;-76
2023/03/22 07:45:53;;;;;;;;;;;;;;;9.19;93.23;100585.84;4942725;29;1898;-77
2023/03/22 07:48:18;;;;;;;;;;;;;;;9.24;92.67;100575.94;4941707;29;1074;-78
2023/03/22 07:50:44;;;;;;;;;;;;;;;9.31;92.05;100577.09;4936786;29;1102;-77
2023/03/22 07:53:09;;;;;;;;;;;;;;;9.27;92.26;100580.84;4930198;29;1417;-76
2023/03/22 07:55:35;;;;;;;;;;;;;;;9.31;92.53;100577.09;4943327;29;1422;-76
2023/03/22 07:58:00;;;;;;;;;;;;;;;9.34;92.36;100582.00;4940297;29;1102;-76
2023/03/22 08:00:26;;;;;;;;;;;;;;;9.38;92.49;100575.63;4941553;29;4948;-76
2023/03/22 08:02:51;;;;;;;;;;;;;;;9.52;90.96;100577.94;4965418;28;1425;-77
2023/03/22 08:05:17;;;;;;;;;;;;;;;9.44;91.77;100576.91;4945455;29;2138;-76
2023/03/22 08:07:42;;;;;;;;;;;;;;;9.50;91.92;100566.88;4933300;29;1232;-76
2023/03/22 08:10:07;;;;;;;;;;;;;;;9.51;91.29;100571.09;4940142;29;1374;-77
2023/03/22 08:12:33;;;;;;;;;;;;;;;9.53;91.18;100577.00;4946089;29;1062;-77
2023/03/22 08:14:58;;;;;;;;;;;;;;;9.60;91.23;100576.50;4950598;29;1197;-76
2023/03/22 08:17:24;;;;;;;;;;;;;;;9.62;90.54;100584.94;4941457;29;1020;-77
2023/03/22 08:19:50;;;;;;;;;;;;;;;9.71;90.36;100584.22;4946455;29;1111;-76
2023/03/22 08:22:15;;;;;;;;;;;;;;;9.68;91.05;100584.44;4958857;28;1446;-77
2023/03/22 08:24:40;;;;;;;;;;;;;;;9.72;90.73;100591.84;4936209;29;1095;-77
2023/03/22 08:27:06;;;;;;;;;;;;;;;9.74;89.86;100583.94;4949872;28;1922;-76
2023/03/22 08:29:31;;;;;;;;;;;;;;;9.74;90.15;100587.34;4947455;29;1239;-76
2023/03/22 08:32:00;;;;;;;;;;;;;;;9.75;89.96;100580.44;4943485;29;1187;-76
2023/03/22 08:34:26;;;;;;;;;;;;;;;9.86;88.86;100582.94;4947291;29;2078;-77
2023/03/22 08:36:51;;;;;;;;;;;;;;;9.91;89.07;100578.19;4947865;28;1263;-76
2023/03/22 08:39:16;;;;;;;;;;;;;;;9.95;88.75;100577.00;4942864;29;1493;-76
2023/03/22 08:41:42;;;;;;;;;;;;;;;9.97;87.58;100563.91;4947687;29;1258;-77
2023/03/22 08:44:07;;;;;;;;;;;;;;;9.96;87.53;100576.06;4949657;29;1494;-77
2023/03/22 08:46:32;;;;;;;;;;;;;;;10.01;88.02;100565.31;4940459;29;2005;-76
2023/03/22 08:48:59;;;;;;;;;;;;;;;10.01;86.80;100560.94;4944938;29;1473;-76
2023/03/22 08:51:25;;;;;;;;;;;;;;;10.17;86.77;100575.22;4935306;29;1473;-76
2023/03/22 08:53:50;;;;;;;;;;;;;;;10.08;85.81;100566.44;4946492;28;1406;-78
2023/03/22 08:56:16;;;;;;;;;;;;;;;10.07;86.99;100570.81;4947461;29;1284;-76
2023/03/22 08:58:45;;;;;;;;;;;;;;;10.18;85.57;100571.69;4947902;28;1438;-76
2023/03/22 09:01:14;;;;;;;;;;;;;;;10.18;85.02;100571.69;4960788;28;4960;-76
2023/03/22 09:03:40;;;;;;;;;;;;;;;10.32;84.41;100563.56;4943507;29;1277;-77
2023/03/22 09:06:05;;;;;;;;;;;;;;;10.23;85.30;100564.34;4943807;28;1945;-77
2023/03/22 09:08:32;;;;;;;;;;;;;;;10.25;85.66;100559.88;4930275;29;1317;-77
2023/03/22 09:10:57;;;;;;;;;;;;;;;10.30;84.95;100565.50;4929555;29;1351;-77
2023/03/22 09:13:22;;;;;;;;;;;;;;;10.39;84.08;100564.72;4937524;29;1240;-77
2023/03/22 09:15:49;;;;;;;;;;;;;;;10.48;83.99;100553.56;4929392;29;1479;-76
2023/03/22 09:18:15;;;;;;;;;;;;;;;10.39;84.79;100563.91;4947459;29;1445;-76
2023/03/22 09:20:40;;;;;;;;;;;;;;;10.50;83.83;100556.84;4941336;29;1196;-77
2023/03/22 09:23:05;;;;;;;;;;;;;;;10.49;84.35;100568.16;4948661;28;1199;-77
2023/03/22 09:25:31;;;;;;;;;;;;;;;10.53;84.19;100556.56;4944493;28;1968;-77
2023/03/22 09:27:56;;;;;;;;;;;;;;;10.54;84.18;100555.63;4942895;29;1351;-76
2023/03/22 09:30:21;;;;;;;;;;;;;;;10.50;83.83;100551.66;4945775;29;1508;-78
2023/03/22 09:32:47;;;;;;;;;;;;;;;10.46;83.03;100549.47;4923176;28;1766;-77
2023/03/22 09:35:12;;;;;;;;;;;;;;;10.46;83.55;100555.47;4931571;29;1360;-77
2023/03/22 09:37:38;;;;;;;;;;;;;;;10.44;83.53;100557.38;4946241;29;1212;-76
2023/03/22 09:40:05;;;;;;;;;;;;;;;10.60;81.25;100549.09;4931504;29;1596;-76
2023/03/22 09:42:45;;;;;;;;;;;;;;;10.53;81.45;100561.75;4945496;29;1608;-76
2023/03/22 09:45:13;;;;;;;;;;;;;;;10.48;81.73;100565.69;4944451;29;1965;-76
2023/03/22 09:47:41;;;;;;;;;;;;;;;10.46;81.81;100555.47;4945274;29;1528;-77
2023/03/22 09:50:19;;;;;;;;;;;;;;;10.43;82.38;100555.72;4943619;28;1219;-77
2023/03/22 09:52:44;;;;;;;;;;;;;;;10.54;81.48;100554.81;4940814;29;1441;-77
2023/03/22 09:55:16;;;;;;;;;;;;;;;10.46;82.23;100555.47;4942365;28;1696;-77
2023/03/22 09:57:43;;;;;;;;;;;;;;;10.57;81.81;100547.59;4948261;29;2142;-76
2023/03/22 10:00:15;;;;;;;;;;;;;;;10.61;80.49;100551.56;4944832;29;5102;-76
2023/03/22 10:02:40;;;;;;;;;;;;;;;10.59;80.97;100553.44;4947766;29;1438;-76
2023/03/22 10:05:16;;;;;;;;;;;;;;;10.51;81.55;100558.50;4947460;29;1334;-76
2023/03/22 10:07:55;;;;;;;;;;;;;;;10.56;81.12;100555.50;4930323;29;1435;-76
2023/03/22 10:10:21;;;;;;;;;;;;;;;10.53;81.81;100551.38;4946022;29;1406;-76
2023/03/22 10:12:46;;;;;;;;;;;;;;;10.50;81.37;100551.66;4962606;28;1605;-76
2023/03/22 10:15:25;;;;;;;;;;;;;;;10.55;81.82;100554.69;4946913;29;1338;-76
2023/03/22 10:17:52;;;;;;;;;;;;;;;10.70;80.82;100556.91;4947690;29;1167;-76
2023/03/22 10:20:17;;;;;;;;;;;;;;;10.56;81.16;100556.31;4946168;28;1122;-76
2023/03/22 10:22:44;;;;;;;;;;;;;;;10.47;81.87;100564.88;4939948;29;1028;-76
2023/03/22 10:25:14;;;;;;;;;;;;;;;10.53;82.63;100560.94;4942556;29;1600;-77
2023/03/22 10:27:40;;;;;;;;;;;;;;;10.40;83.58;100560.34;4931563;29;1371;-77
2023/03/22 10:30:08;;;;;;;;;;;;;;;10.43;83.31;100555.72;4930351;28;1205;-76
2023/03/22 10:32:39;;;;;;;;;;;;;;;10.31;84.97;100567.13;4948033;28;1410;-77
2023/03/22 10:35:04;;;;;;;;;;;;;;;10.19;85.03;100566.34;4928880;29;1369;-76
2023/03/22 10:37:34;;;;;;;;;;;;;;;10.18;85.82;100561.31;4945142;29;1634;-76
2023/03/22 10:40:05;;;;;;;;;;;;;;;10.18;85.90;100561.31;4927037;29;1449;-76
2023/03/22 10:42:30;;;;;;;;;;;;;;;10.22;86.61;100558.34;4947357;29;1255;-76
2023/03/22 10:44:55;;;;;;;;;;;;;;;10.18;87.03;100558.72;4948239;29;1461;-76
2023/03/22 10:47:41;;;;;;;;;;;;;;;10.08;87.84;100562.06;4929056;29;1962;-76
2023/03/22 10:50:10;;;;;;;;;;;;;;;10.13;88.22;100563.47;4943737;28;2433;-76
2023/03/22 10:52:56;;;;;;;;;;;;;;;9.97;89.21;100575.09;4941752;28;1913;-76
2023/03/22 10:55:23;;;;;;;;;;;;;;;9.95;89.40;100571.81;4940119;28;1755;-76
2023/03/22 10:58:08;;;;;;;;;;;;;;;9.91;90.32;100570.44;4943520;28;1986;-76
2023/03/22 11:00:33;;;;;;;;;;;;;;;9.94;90.08;100567.59;4950095;28;4928;-76
2023/03/22 11:02:59;;;;;;;;;;;;;;;10.02;91.17;100580.72;4928877;29;2030;-75
2023/03/22 11:05:26;;;;;;;;;;;;;;;9.82;91.29;100566.03;4942707;29;1906;-77
2023/03/22 11:07:51;;;;;;;;;;;;;;;9.78;91.91;100569.81;4942310;28;1746;-76
2023/03/22 11:10:17;;;;;;;;;;;;;;;9.78;92.63;100564.63;4945476;28;1831;-77
2023/03/22 11:12:48;;;;;;;;;;;;;;;9.75;92.44;100562.31;4937951;29;1947;-77
2023/03/22 11:15:31;;;;;;;;;;;;;;;9.75;93.12;100562.31;4945570;28;1672;-77
2023/03/22 11:18:00;;;;;;;;;;;;;;;9.77;93.58;100563.81;4956991;28;1743;-78
2023/03/22 11:20:26;;;;;;;;;;;;;;;9.75;94.04;100560.53;4943097;29;1697;-76
2023/03/22 11:22:52;;;;;;;;;;;;;;;9.77;93.75;100563.00;4944878;28;1677;-76
2023/03/22 11:25:21;;;;;;;;;;;;;;;9.78;93.05;100549.91;4943857;28;1902;-76
2023/03/22 11:28:04;;;;;;;;;;;;;;;9.82;93.57;100545.31;4943946;28;1693;-77
2023/03/22 11:30:30;;;;;;;;;;;;;;;9.90;94.23;100548.06;4934045;28;1738;-76
2023/03/22 11:33:00;;;;;;;;;;;;;;;9.97;94.86;100556.97;4944405;28;1844;-76
2023/03/22 11:35:28;;;;;;;;;;;;;;;9.99;94.40;100547.31;4925414;29;1901;-77
2023/03/22 11:37:54;;;;;;;;;;;;;;;10.06;94.83;100547.63;4939779;29;2125;-77
2023/03/22 11:40:19;;;;;;;;;;;;;;;10.14;94.53;100554.72;4931173;29;1928;-76
2023/03/22 11:42:45;;;;;;;;;;;;;;;10.19;94.23;100552.59;4942356;28;1759;-76
2023/03/22 11:45:15;;;;;;;;;;;;;;;10.19;94.10;100553.41;4944295;29;1769;-76
2023/03/22 11:47:40;;;;;;;;;;;;;;;10.17;94.67;100552.72;4952851;28;2274;-76
2023/03/22 11:50:09;;;;;;;;;;;;;;;10.22;94.14;100560.13;4943749;29;2142;-75
2023/03/22 11:52:34;;;;;;;;;;;;;;;10.24;93.82;100545.28;4941728;28;2732;-76
2023/03/22 11:55:00;;;;;;;;;;;;;;;10.21;93.73;100541.16;4945158;28;1996;-76
2023/03/22 11:57:28;;;;;;;;;;;;;;;10.22;94.16;100541.97;4943542;28;1992;-76
2023/03/22 11:59:59;;;;;;;;;;;;;;;10.26;93.98;100548.53;4941491;28;2055;-76
2023/03/22 12:02:26;;;;;;;;;;;;;;;10.19;93.28;100537.84;4942307;28;1867;-76
2023/03/22 12:05:01;;;;;;;;;;;;;;;10.19;93.75;100537.03;4949831;28;1481;-77
2023/03/22 12:07:28;;;;;;;;;;;;;;;10.19;92.95;100540.44;4946952;28;1898;-76
2023/03/22 12:09:59;;;;;;;;;;;;;;;10.16;92.74;100538.13;4946474;28;1137;-76
2023/03/22 12:12:34;;;;;;;;;;;;;;;10.23;92.48;100539.28;4929356;28;1383;-76
2023/03/22 12:15:03;;;;;;;;;;;;;;;10.18;92.45;100535.41;4948433;29;1410;-75
2023/03/22 12:17:37;;;;;;;;;;;;;;;10.18;93.11;100556.94;4948789;29;1311;-76
2023/03/22 12:20:07;;;;;;;;;;;;;;;10.28;92.46;100557.03;4944466;29;1180;-77
2023/03/22 12:22:34;;;;;;;;;;;;;;;10.21;92.61;100561.06;4933311;29;1380;-76
2023/03/22 12:25:01;;;;;;;;;;;;;;;10.26;92.32;100553.72;4948850;29;1435;-76
2023/03/22 12:27:33;;;;;;;;;;;;;;;10.25;91.98;100557.28;4944876;29;1919;-76
2023/03/22 12:30:01;;;;;;;;;;;;;;;10.33;92.27;100544.50;4943400;28;1192;-76
2023/03/22 12:32:32;;;;;;;;;;;;;;;10.25;92.15;100541.72;4944343;28;1538;-76
2023/03/22 12:34:58;;;;;;;;;;;;;;;10.29;92.25;100548.31;4945443;29;1121;-77
2023/03/22 12:37:26;;;;;;;;;;;;;;;10.26;91.55;100548.53;4936687;29;1577;-76
2023/03/22 12:39:54;;;;;;;;;;;;;;;10.29;92.30;100548.31;4941250;29;1313;-76
2023/03/22 12:42:22;;;;;;;;;;;;;;;10.35;92.00;100540.00;4947953;29;1566;-76
2023/03/22 12:44:49;;;;;;;;;;;;;;;10.31;91.40;100541.22;4948358;29;1247;-75
2023/03/22 12:47:21;;;;;;;;;;;;;;;10.36;91.40;100545.03;4943376;29;2322;-76
2023/03/22 12:49:59;;;;;;;;;;;;;;;10.29;90.85;100550.91;4960916;28;1464;-77
2023/03/22 12:52:29;;;;;;;;;;;;;;;10.29;91.88;100543.13;4943501;29;1402;-76
2023/03/22 12:54:57;;;;;;;;;;;;;;;10.38;90.66;100542.34;4939273;29;1867;-77
2023/03/22 12:57:23;;;;;;;;;;;;;;;10.28;90.86;100541.47;4930972;29;1597;-76